Drummond Island, MI

1:37 AM EDT on August 31, 2014 (GMT -0400)
Drummond Island | Change Station
CLOSE
Current Station
Airport
Location: Drummond Island,
Elevation: 669 ft
Nearby Weather Stations

Elev 669 ft 46.01 °N, 83.74 °W | Updated 22 minutes ago

Overcast
Overcast
66 °F
Feels Like 66 °F
N
5
Wind Variable Wind from SW

Today
High -- | Low -- °F
--% Chance of Precip.
Yesterday
High -- | Low -- °F
Precip. -- in
6:54 AM 8:15 PM
Waxing Crescent, 28% visible
Pressure 29.76 in
Visibility -9999.0 miles
Clouds Mostly Cloudy 300 ft
Mostly Cloudy 700 ft
Overcast 1400 ft
Dew Point 66 °F
Humidity 100%
Rainfall 0.00 in
Snow Depth Not available.
UV 0 out of 12
Pollen 3.00 out of 12
Ozone Good
PM2.5 Good
Flu Activity Not available.
METAR KDRM 310515Z AUTO 22004KT BKN003 BKN007 OVC014 19/19 A2976 RMK AO2 T01870187 PWINO

More Conditions Fewer Conditions

Pressure 29.76 in
Visibility -9999.0 miles
Clouds Mostly Cloudy 300 ft
Mostly Cloudy 700 ft
Overcast 1400 ft
Dew Point 66 °F
Humidity 100%
Rainfall 0.00 in
Snow Depth Not available.
UV 0 out of 12
Pollen 3.00 out of 12
Ozone Good
PM2.5 Good
Flu Activity Not available.
METAR KDRM 310515Z AUTO 22004KT BKN003 BKN007 OVC014 19/19 A2976 RMK AO2 T01870187 PWINO

More Conditions Fewer Conditions

Nowcast | as of 1:00 am EDT on August 31, 2014

At 2 am...cloudy. Patchy fog. Chance of rain showers. Temperature 66. West winds 6 mph. At 4 am...cloudy. Patchy fog. Chance of rain showers. Temperature 65. Northwest winds 6 mph. At 6 am...cloudy. Patchy fog. Chance of rain showers. Temperature 63. Northwest winds 6 mph. At 8 am...cloudy. Patchy fog. Chance of rain showers. Temperature 63. Northwest winds 6 mph.

×

10-Day Weather Forecast

Almanac

Astronomy

Aug. 31, 2014 Rise Set
Actual Time 6:54 AM EDT 8:15 PM EDT
Civil Twilight 6:23 AM EDT 8:45 PM EDT
Nautical Twilight 5:45 AM EDT 9:23 PM EDT
Astronomical Twilight 5:05 AM EDT 10:02 PM EDT
Moon 12:59 PM EDT 11:08 PM EDT
Length of Visible Light 14h 22m
Length of Day
13h 20m
Tomorrow will be 3m 7s shorter.
Waxing Crescent, 28% of the Moon is Illuminated
Today
Waxing Crescent
Sep 2
First Quarter
Sep 8
Full
Sep 15
Last Quarter
Sep 24
New

Today's Extremes

State Highs State Lows

Community

WunderPhotos

Upload Photos

1,748,790 photos uploaded!

Nearby

Air Quality

  Air Quality AQ Index Pollutant
Yesterday Good
PM2.5
Yesterday Good
OZONE
Current Good
OZONE
Current Good
PM2.5
Saturday Good
OZONE
Saturday Good
PM2.5
Sunday Good
OZONE
Sunday Good
PM2.5
Monday Good
OZONE
Monday Good
PM2.5
Tuesday Good
OZONE
Tuesday Good
PM2.5

Snow Depth

Station Depth Elevation
No new snow has been reported.

Earthquake Activity

City Distance Mag. Time & Date
No recent earthquake activity has been reported nearby.
Minimum magnitude displayed is 2.5.

Coastal Water Temperatures

Place Temperature
De Tour Village, MI 60.1 °F
Rock Cut, MI 62.1 °F
Little Rapids, MI 60.1 °F
S W Pier, MI 61.0 °F
West Neebish, MI 59.0 °F

Nearby Weather Stations